sensor_id;sensor_type;location;lat;lon;timestamp;P1;durP1;ratioP1;P2;durP2;ratioP2
51692;SDS011;37777;53.066;21.638;2022-09-20T00:03:03;13.38;;;7.45;;
51692;SDS011;37777;53.066;21.638;2022-09-20T00:10:05;13.13;;;7.22;;
51692;SDS011;37777;53.066;21.638;2022-09-20T00:17:08;10.02;;;6.45;;
51692;SDS011;37777;53.066;21.638;2022-09-20T00:24:11;11.05;;;7.13;;
51692;SDS011;37777;53.066;21.638;2022-09-20T00:31:13;9.35;;;6.43;;
51692;SDS011;37777;53.066;21.638;2022-09-20T00:38:16;10.27;;;6.40;;
51692;SDS011;37777;53.066;21.638;2022-09-20T00:45:24;11.13;;;6.82;;
51692;SDS011;37777;53.066;21.638;2022-09-20T00:52:28;8.15;;;6.10;;
51692;SDS011;37777;53.066;21.638;2022-09-20T00:59:31;12.48;;;6.30;;
51692;SDS011;37777;53.066;21.638;2022-09-20T01:06:35;14.07;;;6.05;;
51692;SDS011;37777;53.066;21.638;2022-09-20T01:13:37;12.20;;;6.55;;
51692;SDS011;37777;53.066;21.638;2022-09-20T01:20:40;8.68;;;5.43;;
51692;SDS011;37777;53.066;21.638;2022-09-20T01:27:46;6.72;;;5.20;;
51692;SDS011;37777;53.066;21.638;2022-09-20T01:34:54;7.68;;;5.13;;
51692;SDS011;37777;53.066;21.638;2022-09-20T01:42:01;8.27;;;4.95;;
51692;SDS011;37777;53.066;21.638;2022-09-20T02:11:19;6.80;;;4.28;;
51692;SDS011;37777;53.066;21.638;2022-09-20T02:33:05;7.65;;;4.72;;
51692;SDS011;37777;53.066;21.638;2022-09-20T02:40:15;6.22;;;4.35;;
51692;SDS011;37777;53.066;21.638;2022-09-20T02:47:24;4.85;;;4.35;;
51692;SDS011;37777;53.066;21.638;2022-09-20T02:54:44;8.15;;;5.15;;
51692;SDS011;37777;53.066;21.638;2022-09-20T03:09:00;10.27;;;4.55;;
51692;SDS011;37777;53.066;21.638;2022-09-20T03:23:24;7.95;;;4.82;;
51692;SDS011;37777;53.066;21.638;2022-09-20T04:00:05;6.55;;;4.22;;
51692;SDS011;37777;53.066;21.638;2022-09-20T04:07:22;5.13;;;4.22;;
51692;SDS011;37777;53.066;21.638;2022-09-20T04:14:57;7.50;;;5.50;;
51692;SDS011;37777;53.066;21.638;2022-09-20T04:22:04;7.47;;;5.05;;
51692;SDS011;37777;53.066;21.638;2022-09-20T04:29:13;5.47;;;4.60;;
51692;SDS011;37777;53.066;21.638;2022-09-20T05:06:52;6.55;;;5.10;;
51692;SDS011;37777;53.066;21.638;2022-09-20T05:43:07;7.93;;;4.82;;
51692;SDS011;37777;53.066;21.638;2022-09-20T06:05:14;8.43;;;4.85;;
51692;SDS011;37777;53.066;21.638;2022-09-20T06:26:29;7.20;;;5.00;;
51692;SDS011;37777;53.066;21.638;2022-09-20T06:33:52;6.22;;;4.82;;
51692;SDS011;37777;53.066;21.638;2022-09-20T06:41:00;6.03;;;4.68;;
51692;SDS011;37777;53.066;21.638;2022-09-20T06:48:22;7.95;;;4.88;;
51692;SDS011;37777;53.066;21.638;2022-09-20T06:55:25;8.90;;;4.30;;
51692;SDS011;37777;53.066;21.638;2022-09-20T07:02:44;6.23;;;4.47;;
51692;SDS011;37777;53.066;21.638;2022-09-20T07:09:47;6.30;;;4.93;;
51692;SDS011;37777;53.066;21.638;2022-09-20T07:16:49;6.40;;;4.45;;
51692;SDS011;37777;53.066;21.638;2022-09-20T07:23:53;7.00;;;4.30;;
51692;SDS011;37777;53.066;21.638;2022-09-20T07:30:55;6.32;;;3.80;;
51692;SDS011;37777;53.066;21.638;2022-09-20T07:37:57;4.78;;;3.58;;
51692;SDS011;37777;53.066;21.638;2022-09-20T07:44:59;4.40;;;4.00;;
51692;SDS011;37777;53.066;21.638;2022-09-20T07:52:04;4.97;;;3.65;;
51692;SDS011;37777;53.066;21.638;2022-09-20T07:59:06;7.82;;;3.80;;
51692;SDS011;37777;53.066;21.638;2022-09-20T08:06:09;4.43;;;3.15;;
51692;SDS011;37777;53.066;21.638;2022-09-20T08:13:12;5.60;;;3.28;;
51692;SDS011;37777;53.066;21.638;2022-09-20T08:20:35;3.97;;;3.33;;
51692;SDS011;37777;53.066;21.638;2022-09-20T08:27:38;3.47;;;3.10;;
51692;SDS011;37777;53.066;21.638;2022-09-20T08:34:40;3.45;;;2.60;;
51692;SDS011;37777;53.066;21.638;2022-09-20T08:41:47;3.13;;;2.70;;
51692;SDS011;37777;53.066;21.638;2022-09-20T08:48:51;2.42;;;2.22;;
51692;SDS011;37777;53.066;21.638;2022-09-20T08:55:56;2.50;;;2.30;;
51692;SDS011;37777;53.066;21.638;2022-09-20T09:03:02;3.47;;;2.22;;
51692;SDS011;37777;53.066;21.638;2022-09-20T09:10:07;2.67;;;2.30;;
51692;SDS011;37777;53.066;21.638;2022-09-20T09:17:10;2.13;;;1.98;;
51692;SDS011;37777;53.066;21.638;2022-09-20T09:24:17;2.38;;;2.17;;
51692;SDS011;37777;53.066;21.638;2022-09-20T09:31:24;2.50;;;2.30;;
51692;SDS011;37777;53.066;21.638;2022-09-20T09:38:30;2.55;;;2.20;;
51692;SDS011;37777;53.066;21.638;2022-09-20T09:45:35;2.95;;;2.40;;
51692;SDS011;37777;53.066;21.638;2022-09-20T09:52:41;3.90;;;2.88;;
51692;SDS011;37777;53.066;21.638;2022-09-20T10:07:28;3.00;;;2.65;;
51692;SDS011;37777;53.066;21.638;2022-09-20T10:36:35;3.60;;;2.40;;
51692;SDS011;37777;53.066;21.638;2022-09-20T10:51:23;7.45;;;1.83;;
51692;SDS011;37777;53.066;21.638;2022-09-20T10:58:38;5.22;;;2.00;;
51692;SDS011;37777;53.066;21.638;2022-09-20T11:20:29;2.30;;;1.77;;
51692;SDS011;37777;53.066;21.638;2022-09-20T11:27:36;1.60;;;1.48;;
51692;SDS011;37777;53.066;21.638;2022-09-20T11:34:48;2.35;;;1.45;;
51692;SDS011;37777;53.066;21.638;2022-09-20T11:42:02;1.67;;;1.58;;
51692;SDS011;37777;53.066;21.638;2022-09-20T11:49:11;1.80;;;1.70;;
51692;SDS011;37777;53.066;21.638;2022-09-20T11:56:21;1.60;;;1.48;;
51692;SDS011;37777;53.066;21.638;2022-09-20T12:03:30;1.75;;;1.65;;
51692;SDS011;37777;53.066;21.638;2022-09-20T12:10:37;2.30;;;1.90;;
51692;SDS011;37777;53.066;21.638;2022-09-20T12:18:02;1.90;;;1.60;;
51692;SDS011;37777;53.066;21.638;2022-09-20T12:25:32;2.00;;;1.70;;
51692;SDS011;37777;53.066;21.638;2022-09-20T12:32:42;1.88;;;1.75;;
51692;SDS011;37777;53.066;21.638;2022-09-20T12:39:51;1.83;;;1.73;;
51692;SDS011;37777;53.066;21.638;2022-09-20T12:54:11;2.78;;;1.50;;
51692;SDS011;37777;53.066;21.638;2022-09-20T13:15:19;4.25;;;1.50;;
51692;SDS011;37777;53.066;21.638;2022-09-20T13:22:29;2.53;;;1.52;;
51692;SDS011;37777;53.066;21.638;2022-09-20T13:36:39;2.85;;;2.13;;
51692;SDS011;37777;53.066;21.638;2022-09-20T13:43:42;7.72;;;4.45;;
51692;SDS011;37777;53.066;21.638;2022-09-20T13:50:45;2.60;;;1.60;;
51692;SDS011;37777;53.066;21.638;2022-09-20T13:57:54;13.35;;;1.60;;
51692;SDS011;37777;53.066;21.638;2022-09-20T14:04:58;2.22;;;1.60;;
51692;SDS011;37777;53.066;21.638;2022-09-20T14:12:01;1.85;;;1.73;;
51692;SDS011;37777;53.066;21.638;2022-09-20T14:19:05;2.92;;;2.03;;
51692;SDS011;37777;53.066;21.638;2022-09-20T14:26:24;9.73;;;5.03;;
51692;SDS011;37777;53.066;21.638;2022-09-20T14:33:28;3.95;;;2.58;;
51692;SDS011;37777;53.066;21.638;2022-09-20T14:40:32;11.63;;;3.05;;
51692;SDS011;37777;53.066;21.638;2022-09-20T14:47:51;3.70;;;2.75;;
51692;SDS011;37777;53.066;21.638;2022-09-20T14:54:59;2.88;;;2.05;;
51692;SDS011;37777;53.066;21.638;2022-09-20T15:02:14;2.28;;;1.55;;
51692;SDS011;37777;53.066;21.638;2022-09-20T15:09:17;7.13;;;1.77;;
51692;SDS011;37777;53.066;21.638;2022-09-20T15:16:21;1.90;;;1.80;;
51692;SDS011;37777;53.066;21.638;2022-09-20T15:23:23;2.40;;;2.00;;
51692;SDS011;37777;53.066;21.638;2022-09-20T15:30:25;3.00;;;1.95;;
51692;SDS011;37777;53.066;21.638;2022-09-20T15:37:28;2.50;;;2.30;;
51692;SDS011;37777;53.066;21.638;2022-09-20T15:44:30;4.50;;;2.65;;
51692;SDS011;37777;53.066;21.638;2022-09-20T15:51:33;3.78;;;3.00;;
51692;SDS011;37777;53.066;21.638;2022-09-20T15:58:35;2.97;;;2.15;;
51692;SDS011;37777;53.066;21.638;2022-09-20T16:05:38;4.10;;;2.67;;
51692;SDS011;37777;53.066;21.638;2022-09-20T16:12:42;4.32;;;2.67;;
51692;SDS011;37777;53.066;21.638;2022-09-20T16:19:44;4.78;;;2.33;;
51692;SDS011;37777;53.066;21.638;2022-09-20T16:26:49;3.70;;;2.90;;
51692;SDS011;37777;53.066;21.638;2022-09-20T16:33:51;3.95;;;2.88;;
51692;SDS011;37777;53.066;21.638;2022-09-20T16:40:53;3.80;;;3.10;;
51692;SDS011;37777;53.066;21.638;2022-09-20T16:47:56;6.47;;;4.20;;
51692;SDS011;37777;53.066;21.638;2022-09-20T16:54:58;6.05;;;4.00;;
51692;SDS011;37777;53.066;21.638;2022-09-20T17:02:02;8.43;;;4.90;;
51692;SDS011;37777;53.066;21.638;2022-09-20T17:09:05;9.48;;;4.57;;
51692;SDS011;37777;53.066;21.638;2022-09-20T17:16:13;8.15;;;4.72;;
51692;SDS011;37777;53.066;21.638;2022-09-20T17:23:16;11.40;;;4.50;;
51692;SDS011;37777;53.066;21.638;2022-09-20T17:30:18;7.78;;;4.60;;
51692;SDS011;37777;53.066;21.638;2022-09-20T17:37:20;6.82;;;3.85;;
51692;SDS011;37777;53.066;21.638;2022-09-20T17:44:23;11.90;;;4.90;;
51692;SDS011;37777;53.066;21.638;2022-09-20T17:51:27;7.05;;;4.43;;
51692;SDS011;37777;53.066;21.638;2022-09-20T17:58:33;8.35;;;5.15;;
51692;SDS011;37777;53.066;21.638;2022-09-20T18:05:37;8.23;;;5.20;;
51692;SDS011;37777;53.066;21.638;2022-09-20T18:12:39;11.00;;;4.95;;
51692;SDS011;37777;53.066;21.638;2022-09-20T18:19:41;9.60;;;5.15;;
51692;SDS011;37777;53.066;21.638;2022-09-20T18:26:45;10.73;;;6.32;;
51692;SDS011;37777;53.066;21.638;2022-09-20T18:33:50;10.80;;;6.10;;
51692;SDS011;37777;53.066;21.638;2022-09-20T18:40:54;10.50;;;5.30;;
51692;SDS011;37777;53.066;21.638;2022-09-20T18:48:00;11.60;;;5.75;;
51692;SDS011;37777;53.066;21.638;2022-09-20T18:55:02;13.27;;;6.88;;
51692;SDS011;37777;53.066;21.638;2022-09-20T19:16:41;13.70;;;7.30;;
51692;SDS011;37777;53.066;21.638;2022-09-20T19:31:10;20.02;;;10.35;;
51692;SDS011;37777;53.066;21.638;2022-09-20T19:54:02;14.48;;;7.93;;
51692;SDS011;37777;53.066;21.638;2022-09-20T20:01:06;21.95;;;7.55;;
51692;SDS011;37777;53.066;21.638;2022-09-20T20:08:18;22.90;;;6.45;;
51692;SDS011;37777;53.066;21.638;2022-09-20T20:15:42;11.90;;;5.63;;
51692;SDS011;37777;53.066;21.638;2022-09-20T20:29:50;10.15;;;5.00;;
51692;SDS011;37777;53.066;21.638;2022-09-20T20:36:53;8.88;;;4.90;;
51692;SDS011;37777;53.066;21.638;2022-09-20T20:44:01;6.90;;;4.97;;
51692;SDS011;37777;53.066;21.638;2022-09-20T20:51:09;6.72;;;4.60;;
51692;SDS011;37777;53.066;21.638;2022-09-20T20:58:16;9.33;;;5.27;;
51692;SDS011;37777;53.066;21.638;2022-09-20T21:05:20;9.43;;;5.28;;
51692;SDS011;37777;53.066;21.638;2022-09-20T21:12:26;8.07;;;4.63;;
51692;SDS011;37777;53.066;21.638;2022-09-20T21:19:28;5.30;;;4.15;;
51692;SDS011;37777;53.066;21.638;2022-09-20T21:26:32;7.38;;;4.57;;
51692;SDS011;37777;53.066;21.638;2022-09-20T21:33:36;8.52;;;4.88;;
51692;SDS011;37777;53.066;21.638;2022-09-20T21:40:40;8.52;;;4.30;;
51692;SDS011;37777;53.066;21.638;2022-09-20T21:47:42;8.60;;;4.20;;
51692;SDS011;37777;53.066;21.638;2022-09-20T21:54:44;4.93;;;3.80;;
51692;SDS011;37777;53.066;21.638;2022-09-20T22:01:46;7.88;;;4.10;;
51692;SDS011;37777;53.066;21.638;2022-09-20T22:16:04;6.63;;;4.35;;
51692;SDS011;37777;53.066;21.638;2022-09-20T22:23:08;6.13;;;4.82;;
51692;SDS011;37777;53.066;21.638;2022-09-20T22:30:10;8.45;;;5.15;;
51692;SDS011;37777;53.066;21.638;2022-09-20T22:37:13;11.48;;;4.72;;
51692;SDS011;37777;53.066;21.638;2022-09-20T22:44:15;9.57;;;4.90;;
51692;SDS011;37777;53.066;21.638;2022-09-20T22:51:21;9.50;;;5.53;;
51692;SDS011;37777;53.066;21.638;2022-09-20T22:58:27;10.38;;;5.75;;
51692;SDS011;37777;53.066;21.638;2022-09-20T23:05:31;8.13;;;5.60;;
51692;SDS011;37777;53.066;21.638;2022-09-20T23:12:33;8.48;;;5.10;;
51692;SDS011;37777;53.066;21.638;2022-09-20T23:19:35;9.13;;;5.50;;
51692;SDS011;37777;53.066;21.638;2022-09-20T23:26:37;8.05;;;5.57;;
51692;SDS011;37777;53.066;21.638;2022-09-20T23:33:47;9.85;;;6.05;;
51692;SDS011;37777;53.066;21.638;2022-09-20T23:40:50;10.60;;;6.05;;
51692;SDS011;37777;53.066;21.638;2022-09-20T23:47:52;9.63;;;5.50;;
51692;SDS011;37777;53.066;21.638;2022-09-20T23:54:54;11.80;;;5.57;;
